Terminal Aerodrome Forecast
Issued by NWS Omaha/Valley, NE

Home | Current Version | Previous Version | Graphics & Text | Print | Product List | Glossary On
Versions: 1 2 3 4 5 6 7 8 9 10 11 12 13 14 15 16 17 18 19 20 21 22 23 24 25 26 27 28
000
FTUS43 KOAX 261645 AAB
TAFOFK
TAF AMD
KOFK 261645Z 2617/2712 13010KT P6SM SCT020
      TEMPO 2617/2618 BKN020
     FM261800 12010KT P6SM SCT020 BKN040
      TEMPO 2618/2620 VRB25G40KT 2SM +TSRA BKN020CB
     FM262100 36009KT P6SM SCT040 BKN200=

USA.gov is the U.S. government's official web portal to all federal, state and local government web resources and services.